sensor_id;sensor_type;location;lat;lon;timestamp;P1;durP1;ratioP1;P2;durP2;ratioP2
14686;SDS011;7431;49.440;11.084;2024-02-16T00:02:01;6.80;;;3.90;;
14686;SDS011;7431;49.440;11.084;2024-02-16T00:04:27;6.30;;;3.77;;
14686;SDS011;7431;49.440;11.084;2024-02-16T00:06:53;5.40;;;4.00;;
14686;SDS011;7431;49.440;11.084;2024-02-16T00:09:19;3.90;;;2.90;;
14686;SDS011;7431;49.440;11.084;2024-02-16T00:11:45;2.93;;;2.50;;
14686;SDS011;7431;49.440;11.084;2024-02-16T00:14:13;3.73;;;2.63;;
14686;SDS011;7431;49.440;11.084;2024-02-16T00:16:39;3.23;;;2.40;;
14686;SDS011;7431;49.440;11.084;2024-02-16T00:19:05;3.57;;;2.20;;
14686;SDS011;7431;49.440;11.084;2024-02-16T00:21:31;4.07;;;2.30;;
14686;SDS011;7431;49.440;11.084;2024-02-16T00:23:57;3.73;;;2.40;;
14686;SDS011;7431;49.440;11.084;2024-02-16T00:26:23;2.20;;;2.07;;
14686;SDS011;7431;49.440;11.084;2024-02-16T00:28:49;2.93;;;2.17;;
14686;SDS011;7431;49.440;11.084;2024-02-16T00:31:18;3.77;;;2.30;;
14686;SDS011;7431;49.440;11.084;2024-02-16T00:33:44;4.63;;;2.60;;
14686;SDS011;7431;49.440;11.084;2024-02-16T00:36:10;2.43;;;2.23;;
14686;SDS011;7431;49.440;11.084;2024-02-16T00:38:36;2.73;;;2.20;;
14686;SDS011;7431;49.440;11.084;2024-02-16T00:41:02;2.30;;;2.10;;
14686;SDS011;7431;49.440;11.084;2024-02-16T00:43:29;3.13;;;2.20;;
14686;SDS011;7431;49.440;11.084;2024-02-16T00:45:55;4.53;;;2.20;;
14686;SDS011;7431;49.440;11.084;2024-02-16T00:48:21;3.50;;;2.03;;
14686;SDS011;7431;49.440;11.084;2024-02-16T00:50:47;2.13;;;1.73;;
14686;SDS011;7431;49.440;11.084;2024-02-16T00:53:13;5.00;;;2.03;;
14686;SDS011;7431;49.440;11.084;2024-02-16T00:55:39;1.80;;;1.70;;
14686;SDS011;7431;49.440;11.084;2024-02-16T00:58:06;2.23;;;1.80;;
14686;SDS011;7431;49.440;11.084;2024-02-16T01:00:32;3.10;;;2.30;;
14686;SDS011;7431;49.440;11.084;2024-02-16T01:02:58;1.73;;;1.63;;
14686;SDS011;7431;49.440;11.084;2024-02-16T01:05:24;3.63;;;2.10;;
14686;SDS011;7431;49.440;11.084;2024-02-16T01:07:50;2.00;;;1.80;;
14686;SDS011;7431;49.440;11.084;2024-02-16T01:10:16;2.20;;;1.80;;
14686;SDS011;7431;49.440;11.084;2024-02-16T01:12:42;2.37;;;1.83;;
14686;SDS011;7431;49.440;11.084;2024-02-16T01:15:08;2.90;;;2.20;;
14686;SDS011;7431;49.440;11.084;2024-02-16T01:17:34;1.90;;;1.80;;
14686;SDS011;7431;49.440;11.084;2024-02-16T01:20:00;2.03;;;1.90;;
14686;SDS011;7431;49.440;11.084;2024-02-16T01:22:26;2.83;;;2.30;;
14686;SDS011;7431;49.440;11.084;2024-02-16T01:24:55;3.27;;;1.97;;
14686;SDS011;7431;49.440;11.084;2024-02-16T01:27:21;2.90;;;2.00;;
14686;SDS011;7431;49.440;11.084;2024-02-16T01:29:47;2.13;;;1.93;;
14686;SDS011;7431;49.440;11.084;2024-02-16T01:32:13;2.30;;;1.57;;
14686;SDS011;7431;49.440;11.084;2024-02-16T01:34:39;2.97;;;1.63;;
14686;SDS011;7431;49.440;11.084;2024-02-16T01:37:05;2.20;;;2.00;;
14686;SDS011;7431;49.440;11.084;2024-02-16T01:39:31;1.80;;;1.70;;
14686;SDS011;7431;49.440;11.084;2024-02-16T01:41:56;1.63;;;1.53;;
14686;SDS011;7431;49.440;11.084;2024-02-16T01:44:22;2.27;;;1.77;;
14686;SDS011;7431;49.440;11.084;2024-02-16T01:46:48;1.73;;;1.50;;
14686;SDS011;7431;49.440;11.084;2024-02-16T01:49:14;2.10;;;1.90;;
14686;SDS011;7431;49.440;11.084;2024-02-16T01:51:41;2.40;;;1.70;;
14686;SDS011;7431;49.440;11.084;2024-02-16T01:54:08;1.70;;;1.60;;
14686;SDS011;7431;49.440;11.084;2024-02-16T01:56:34;3.13;;;1.83;;
14686;SDS011;7431;49.440;11.084;2024-02-16T01:59:00;2.60;;;1.70;;
14686;SDS011;7431;49.440;11.084;2024-02-16T02:01:26;2.20;;;2.00;;
14686;SDS011;7431;49.440;11.084;2024-02-16T02:03:52;1.77;;;1.67;;
14686;SDS011;7431;49.440;11.084;2024-02-16T02:06:18;2.13;;;1.50;;
14686;SDS011;7431;49.440;11.084;2024-02-16T02:08:44;2.77;;;2.43;;
14686;SDS011;7431;49.440;11.084;2024-02-16T02:11:10;4.40;;;2.93;;
14686;SDS011;7431;49.440;11.084;2024-02-16T02:13:36;6.50;;;3.13;;
14686;SDS011;7431;49.440;11.084;2024-02-16T02:16:02;3.03;;;2.50;;
14686;SDS011;7431;49.440;11.084;2024-02-16T02:18:28;2.70;;;2.50;;
14686;SDS011;7431;49.440;11.084;2024-02-16T02:20:54;4.87;;;2.97;;
14686;SDS011;7431;49.440;11.084;2024-02-16T02:23:20;4.70;;;2.93;;
14686;SDS011;7431;49.440;11.084;2024-02-16T02:25:46;6.20;;;2.97;;
14686;SDS011;7431;49.440;11.084;2024-02-16T02:28:14;4.60;;;2.87;;
14686;SDS011;7431;49.440;11.084;2024-02-16T02:30:40;4.37;;;2.97;;
14686;SDS011;7431;49.440;11.084;2024-02-16T02:33:07;3.17;;;2.70;;
14686;SDS011;7431;49.440;11.084;2024-02-16T02:35:36;3.73;;;2.70;;
14686;SDS011;7431;49.440;11.084;2024-02-16T02:38:02;3.30;;;2.83;;
14686;SDS011;7431;49.440;11.084;2024-02-16T02:40:28;3.77;;;2.80;;
14686;SDS011;7431;49.440;11.084;2024-02-16T02:42:54;3.50;;;2.23;;
14686;SDS011;7431;49.440;11.084;2024-02-16T02:45:20;5.20;;;2.80;;
14686;SDS011;7431;49.440;11.084;2024-02-16T02:47:46;3.40;;;2.53;;
14686;SDS011;7431;49.440;11.084;2024-02-16T02:50:12;2.67;;;2.10;;
14686;SDS011;7431;49.440;11.084;2024-02-16T02:52:38;3.30;;;2.63;;
14686;SDS011;7431;49.440;11.084;2024-02-16T02:55:04;2.67;;;2.30;;
14686;SDS011;7431;49.440;11.084;2024-02-16T02:57:30;3.83;;;2.43;;
14686;SDS011;7431;49.440;11.084;2024-02-16T03:00:02;3.73;;;2.90;;
14686;SDS011;7431;49.440;11.084;2024-02-16T03:02:29;2.90;;;2.10;;
14686;SDS011;7431;49.440;11.084;2024-02-16T03:04:56;3.27;;;2.37;;
14686;SDS011;7431;49.440;11.084;2024-02-16T03:07:21;2.03;;;1.83;;
14686;SDS011;7431;49.440;11.084;2024-02-16T03:09:47;2.10;;;1.83;;
14686;SDS011;7431;49.440;11.084;2024-02-16T03:12:13;2.20;;;2.00;;
14686;SDS011;7431;49.440;11.084;2024-02-16T03:14:40;2.20;;;1.83;;
14686;SDS011;7431;49.440;11.084;2024-02-16T03:17:06;2.50;;;2.30;;
14686;SDS011;7431;49.440;11.084;2024-02-16T03:19:32;1.90;;;1.80;;
14686;SDS011;7431;49.440;11.084;2024-02-16T03:21:58;2.30;;;2.10;;
14686;SDS011;7431;49.440;11.084;2024-02-16T03:24:24;2.10;;;1.90;;
14686;SDS011;7431;49.440;11.084;2024-02-16T03:26:50;3.43;;;2.40;;
14686;SDS011;7431;49.440;11.084;2024-02-16T03:29:16;2.70;;;2.30;;
14686;SDS011;7431;49.440;11.084;2024-02-16T03:31:42;2.83;;;2.10;;
14686;SDS011;7431;49.440;11.084;2024-02-16T03:34:08;2.50;;;1.90;;
14686;SDS011;7431;49.440;11.084;2024-02-16T03:36:34;4.70;;;2.00;;
14686;SDS011;7431;49.440;11.084;2024-02-16T03:39:00;2.60;;;2.10;;
14686;SDS011;7431;49.440;11.084;2024-02-16T03:41:26;3.03;;;2.07;;
14686;SDS011;7431;49.440;11.084;2024-02-16T03:43:52;3.03;;;2.03;;
14686;SDS011;7431;49.440;11.084;2024-02-16T03:46:19;2.63;;;2.30;;
14686;SDS011;7431;49.440;11.084;2024-02-16T03:48:47;2.37;;;2.17;;
14686;SDS011;7431;49.440;11.084;2024-02-16T03:51:13;5.13;;;2.20;;
14686;SDS011;7431;49.440;11.084;2024-02-16T03:53:39;4.43;;;2.50;;
14686;SDS011;7431;49.440;11.084;2024-02-16T03:56:05;4.50;;;2.53;;
14686;SDS011;7431;49.440;11.084;2024-02-16T03:58:32;3.23;;;2.00;;
14686;SDS011;7431;49.440;11.084;2024-02-16T04:00:59;4.43;;;2.20;;
14686;SDS011;7431;49.440;11.084;2024-02-16T04:03:25;3.60;;;2.23;;
14686;SDS011;7431;49.440;11.084;2024-02-16T04:05:51;3.53;;;2.67;;
14686;SDS011;7431;49.440;11.084;2024-02-16T04:08:18;3.27;;;2.30;;
14686;SDS011;7431;49.440;11.084;2024-02-16T04:10:45;2.40;;;2.00;;
14686;SDS011;7431;49.440;11.084;2024-02-16T04:13:11;2.90;;;2.57;;
14686;SDS011;7431;49.440;11.084;2024-02-16T04:15:37;3.47;;;2.83;;
14686;SDS011;7431;49.440;11.084;2024-02-16T04:18:03;2.37;;;2.10;;
14686;SDS011;7431;49.440;11.084;2024-02-16T04:20:29;3.67;;;2.67;;
14686;SDS011;7431;49.440;11.084;2024-02-16T04:22:55;4.20;;;2.30;;
14686;SDS011;7431;49.440;11.084;2024-02-16T04:25:21;2.77;;;2.50;;
14686;SDS011;7431;49.440;11.084;2024-02-16T04:27:47;3.27;;;2.40;;
14686;SDS011;7431;49.440;11.084;2024-02-16T04:30:13;3.60;;;2.53;;
14686;SDS011;7431;49.440;11.084;2024-02-16T04:32:39;3.00;;;2.70;;
14686;SDS011;7431;49.440;11.084;2024-02-16T04:35:05;3.27;;;2.63;;
14686;SDS011;7431;49.440;11.084;2024-02-16T04:37:31;2.87;;;2.60;;
14686;SDS011;7431;49.440;11.084;2024-02-16T04:39:57;2.80;;;2.27;;
14686;SDS011;7431;49.440;11.084;2024-02-16T04:42:23;3.33;;;2.80;;
14686;SDS011;7431;49.440;11.084;2024-02-16T04:44:49;3.53;;;2.57;;
14686;SDS011;7431;49.440;11.084;2024-02-16T04:47:15;4.10;;;3.23;;
14686;SDS011;7431;49.440;11.084;2024-02-16T04:49:42;5.07;;;2.97;;
14686;SDS011;7431;49.440;11.084;2024-02-16T04:52:09;3.93;;;3.20;;
14686;SDS011;7431;49.440;11.084;2024-02-16T04:54:35;3.20;;;2.73;;
14686;SDS011;7431;49.440;11.084;2024-02-16T04:57:01;5.67;;;2.93;;
14686;SDS011;7431;49.440;11.084;2024-02-16T04:59:28;3.87;;;3.30;;
14686;SDS011;7431;49.440;11.084;2024-02-16T05:01:54;3.77;;;2.87;;
14686;SDS011;7431;49.440;11.084;2024-02-16T05:04:20;3.33;;;2.93;;
14686;SDS011;7431;49.440;11.084;2024-02-16T05:06:46;4.77;;;3.57;;
14686;SDS011;7431;49.440;11.084;2024-02-16T05:09:13;5.07;;;3.17;;
14686;SDS011;7431;49.440;11.084;2024-02-16T05:11:42;3.77;;;3.30;;
14686;SDS011;7431;49.440;11.084;2024-02-16T05:14:08;3.50;;;3.20;;
14686;SDS011;7431;49.440;11.084;2024-02-16T05:16:34;3.70;;;3.37;;
14686;SDS011;7431;49.440;11.084;2024-02-16T05:19:00;4.53;;;3.00;;
14686;SDS011;7431;49.440;11.084;2024-02-16T05:21:26;4.73;;;3.50;;
14686;SDS011;7431;49.440;11.084;2024-02-16T05:23:52;5.97;;;3.47;;
14686;SDS011;7431;49.440;11.084;2024-02-16T05:26:18;4.67;;;3.83;;
14686;SDS011;7431;49.440;11.084;2024-02-16T05:28:44;4.73;;;3.80;;
14686;SDS011;7431;49.440;11.084;2024-02-16T05:31:13;4.40;;;3.80;;
14686;SDS011;7431;49.440;11.084;2024-02-16T05:33:41;3.43;;;3.13;;
14686;SDS011;7431;49.440;11.084;2024-02-16T05:36:07;4.50;;;3.50;;
14686;SDS011;7431;49.440;11.084;2024-02-16T05:38:33;3.80;;;3.23;;
14686;SDS011;7431;49.440;11.084;2024-02-16T05:41:05;4.77;;;3.70;;
14686;SDS011;7431;49.440;11.084;2024-02-16T05:43:31;3.90;;;3.50;;
14686;SDS011;7431;49.440;11.084;2024-02-16T05:45:58;4.83;;;3.87;;
14686;SDS011;7431;49.440;11.084;2024-02-16T05:48:24;3.93;;;3.53;;
14686;SDS011;7431;49.440;11.084;2024-02-16T05:50:52;5.17;;;3.50;;
14686;SDS011;7431;49.440;11.084;2024-02-16T05:53:18;4.53;;;3.83;;
14686;SDS011;7431;49.440;11.084;2024-02-16T05:55:44;6.67;;;3.97;;
14686;SDS011;7431;49.440;11.084;2024-02-16T05:58:12;5.13;;;4.40;;
14686;SDS011;7431;49.440;11.084;2024-02-16T06:00:38;5.80;;;4.00;;
14686;SDS011;7431;49.440;11.084;2024-02-16T06:03:04;5.70;;;4.27;;
14686;SDS011;7431;49.440;11.084;2024-02-16T06:05:30;4.70;;;4.03;;
14686;SDS011;7431;49.440;11.084;2024-02-16T06:07:58;7.17;;;4.57;;
14686;SDS011;7431;49.440;11.084;2024-02-16T06:10:24;4.77;;;4.07;;
14686;SDS011;7431;49.440;11.084;2024-02-16T06:12:50;5.03;;;4.40;;
14686;SDS011;7431;49.440;11.084;2024-02-16T06:15:16;12.20;;;6.93;;
14686;SDS011;7431;49.440;11.084;2024-02-16T06:17:42;12.10;;;5.97;;
14686;SDS011;7431;49.440;11.084;2024-02-16T06:20:08;7.77;;;4.87;;
14686;SDS011;7431;49.440;11.084;2024-02-16T06:22:36;6.33;;;5.17;;
14686;SDS011;7431;49.440;11.084;2024-02-16T06:25:02;6.47;;;4.50;;
14686;SDS011;7431;49.440;11.084;2024-02-16T06:27:28;6.97;;;4.73;;
14686;SDS011;7431;49.440;11.084;2024-02-16T06:29:54;4.33;;;3.93;;
14686;SDS011;7431;49.440;11.084;2024-02-16T06:32:20;5.97;;;4.50;;
14686;SDS011;7431;49.440;11.084;2024-02-16T06:34:46;6.83;;;5.23;;
14686;SDS011;7431;49.440;11.084;2024-02-16T06:37:12;6.07;;;4.67;;
14686;SDS011;7431;49.440;11.084;2024-02-16T06:39:38;6.53;;;5.23;;
14686;SDS011;7431;49.440;11.084;2024-02-16T06:42:04;6.37;;;5.03;;
14686;SDS011;7431;49.440;11.084;2024-02-16T06:44:30;6.93;;;5.30;;
14686;SDS011;7431;49.440;11.084;2024-02-16T06:46:58;7.53;;;4.80;;
14686;SDS011;7431;49.440;11.084;2024-02-16T06:49:24;6.63;;;4.80;;
14686;SDS011;7431;49.440;11.084;2024-02-16T06:51:50;5.80;;;4.80;;
14686;SDS011;7431;49.440;11.084;2024-02-16T06:54:16;6.73;;;5.50;;
14686;SDS011;7431;49.440;11.084;2024-02-16T06:56:42;7.67;;;5.37;;
14686;SDS011;7431;49.440;11.084;2024-02-16T06:59:09;9.43;;;5.40;;
14686;SDS011;7431;49.440;11.084;2024-02-16T07:01:35;7.43;;;4.90;;
14686;SDS011;7431;49.440;11.084;2024-02-16T07:04:01;7.10;;;5.67;;
14686;SDS011;7431;49.440;11.084;2024-02-16T07:06:27;6.67;;;5.40;;
14686;SDS011;7431;49.440;11.084;2024-02-16T07:08:53;6.70;;;5.13;;
14686;SDS011;7431;49.440;11.084;2024-02-16T07:11:19;7.43;;;5.33;;
14686;SDS011;7431;49.440;11.084;2024-02-16T07:13:45;7.27;;;5.93;;
14686;SDS011;7431;49.440;11.084;2024-02-16T07:16:12;7.63;;;5.17;;
14686;SDS011;7431;49.440;11.084;2024-02-16T07:18:38;10.07;;;5.50;;
14686;SDS011;7431;49.440;11.084;2024-02-16T07:21:04;6.07;;;5.00;;
14686;SDS011;7431;49.440;11.084;2024-02-16T07:23:30;7.40;;;5.00;;
14686;SDS011;7431;49.440;11.084;2024-02-16T07:25:56;5.67;;;5.17;;
14686;SDS011;7431;49.440;11.084;2024-02-16T07:28:23;5.70;;;4.80;;
14686;SDS011;7431;49.440;11.084;2024-02-16T07:30:49;5.30;;;4.67;;
14686;SDS011;7431;49.440;11.084;2024-02-16T07:33:16;5.57;;;4.97;;
14686;SDS011;7431;49.440;11.084;2024-02-16T07:35:42;5.23;;;4.53;;
14686;SDS011;7431;49.440;11.084;2024-02-16T07:38:08;6.60;;;5.47;;
14686;SDS011;7431;49.440;11.084;2024-02-16T07:40:34;6.47;;;5.17;;
14686;SDS011;7431;49.440;11.084;2024-02-16T07:43:00;5.10;;;4.30;;
14686;SDS011;7431;49.440;11.084;2024-02-16T07:45:26;6.27;;;4.67;;
14686;SDS011;7431;49.440;11.084;2024-02-16T07:47:53;7.63;;;5.30;;
14686;SDS011;7431;49.440;11.084;2024-02-16T07:50:19;6.00;;;4.20;;
14686;SDS011;7431;49.440;11.084;2024-02-16T07:52:46;5.57;;;4.47;;
14686;SDS011;7431;49.440;11.084;2024-02-16T07:55:12;5.70;;;4.20;;
14686;SDS011;7431;49.440;11.084;2024-02-16T07:57:38;6.20;;;4.67;;
14686;SDS011;7431;49.440;11.084;2024-02-16T08:00:04;7.03;;;4.70;;
14686;SDS011;7431;49.440;11.084;2024-02-16T08:02:30;6.67;;;5.03;;
14686;SDS011;7431;49.440;11.084;2024-02-16T08:04:56;7.27;;;4.80;;
14686;SDS011;7431;49.440;11.084;2024-02-16T08:07:22;6.80;;;4.57;;
14686;SDS011;7431;49.440;11.084;2024-02-16T08:09:48;4.77;;;4.00;;
14686;SDS011;7431;49.440;11.084;2024-02-16T08:12:15;5.07;;;4.27;;
14686;SDS011;7431;49.440;11.084;2024-02-16T08:14:41;4.50;;;4.10;;
14686;SDS011;7431;49.440;11.084;2024-02-16T08:17:08;6.73;;;4.83;;
14686;SDS011;7431;49.440;11.084;2024-02-16T08:19:34;5.50;;;4.60;;
14686;SDS011;7431;49.440;11.084;2024-02-16T08:22:05;5.30;;;4.10;;
14686;SDS011;7431;49.440;11.084;2024-02-16T08:24:34;5.23;;;4.40;;
14686;SDS011;7431;49.440;11.084;2024-02-16T08:27:01;5.63;;;4.97;;
14686;SDS011;7431;49.440;11.084;2024-02-16T08:29:27;5.77;;;4.67;;
14686;SDS011;7431;49.440;11.084;2024-02-16T08:31:54;8.07;;;4.90;;
14686;SDS011;7431;49.440;11.084;2024-02-16T08:34:20;5.37;;;4.53;;
14686;SDS011;7431;49.440;11.084;2024-02-16T08:36:46;6.00;;;4.73;;
14686;SDS011;7431;49.440;11.084;2024-02-16T08:39:13;5.17;;;4.67;;
14686;SDS011;7431;49.440;11.084;2024-02-16T08:41:39;4.97;;;4.37;;
14686;SDS011;7431;49.440;11.084;2024-02-16T08:44:08;7.00;;;4.50;;
14686;SDS011;7431;49.440;11.084;2024-02-16T08:46:35;5.30;;;4.33;;
14686;SDS011;7431;49.440;11.084;2024-02-16T08:49:01;5.17;;;4.27;;
14686;SDS011;7431;49.440;11.084;2024-02-16T08:51:28;5.23;;;4.73;;
14686;SDS011;7431;49.440;11.084;2024-02-16T08:54:01;5.87;;;4.53;;
14686;SDS011;7431;49.440;11.084;2024-02-16T08:56:29;5.07;;;4.33;;
14686;SDS011;7431;49.440;11.084;2024-02-16T08:58:55;6.13;;;4.87;;
14686;SDS011;7431;49.440;11.084;2024-02-16T09:01:36;5.80;;;4.60;;
14686;SDS011;7431;49.440;11.084;2024-02-16T09:04:03;6.73;;;4.20;;
14686;SDS011;7431;49.440;11.084;2024-02-16T09:06:29;5.90;;;4.47;;
14686;SDS011;7431;49.440;11.084;2024-02-16T09:08:56;6.30;;;4.80;;
14686;SDS011;7431;49.440;11.084;2024-02-16T09:11:22;6.60;;;5.13;;
14686;SDS011;7431;49.440;11.084;2024-02-16T09:13:48;6.87;;;4.90;;
14686;SDS011;7431;49.440;11.084;2024-02-16T09:16:15;5.93;;;4.83;;
14686;SDS011;7431;49.440;11.084;2024-02-16T09:18:41;8.67;;;4.80;;
14686;SDS011;7431;49.440;11.084;2024-02-16T09:21:07;6.03;;;4.27;;
14686;SDS011;7431;49.440;11.084;2024-02-16T09:23:34;4.73;;;4.20;;
14686;SDS011;7431;49.440;11.084;2024-02-16T09:26:00;5.70;;;5.00;;
14686;SDS011;7431;49.440;11.084;2024-02-16T09:28:27;6.68;;;4.55;;
14686;SDS011;7431;49.440;11.084;2024-02-16T09:30:54;5.27;;;4.10;;
14686;SDS011;7431;49.440;11.084;2024-02-16T09:33:20;6.68;;;4.82;;
14686;SDS011;7431;49.440;11.084;2024-02-16T09:35:46;4.97;;;4.17;;
14686;SDS011;7431;49.440;11.084;2024-02-16T09:38:12;5.43;;;4.00;;
14686;SDS011;7431;49.440;11.084;2024-02-16T09:40:38;5.50;;;3.63;;
14686;SDS011;7431;49.440;11.084;2024-02-16T09:43:05;6.28;;;4.50;;
14686;SDS011;7431;49.440;11.084;2024-02-16T09:45:31;4.55;;;4.07;;
14686;SDS011;7431;49.440;11.084;2024-02-16T09:47:58;4.93;;;4.13;;
14686;SDS011;7431;49.440;11.084;2024-02-16T09:50:24;5.33;;;4.40;;
14686;SDS011;7431;49.440;11.084;2024-02-16T09:52:52;4.70;;;4.20;;
14686;SDS011;7431;49.440;11.084;2024-02-16T09:55:18;5.57;;;4.15;;
14686;SDS011;7431;49.440;11.084;2024-02-16T09:57:44;4.87;;;3.90;;
14686;SDS011;7431;49.440;11.084;2024-02-16T10:00:10;5.40;;;4.53;;
14686;SDS011;7431;49.440;11.084;2024-02-16T10:02:45;5.47;;;3.77;;
14686;SDS011;7431;49.440;11.084;2024-02-16T10:07:38;7.17;;;4.43;;
14686;SDS011;7431;49.440;11.084;2024-02-16T10:10:05;6.10;;;4.43;;
14686;SDS011;7431;49.440;11.084;2024-02-16T10:12:31;5.15;;;4.18;;
14686;SDS011;7431;49.440;11.084;2024-02-16T10:14:57;7.33;;;4.07;;
14686;SDS011;7431;49.440;11.084;2024-02-16T10:17:25;6.23;;;4.23;;
14686;SDS011;7431;49.440;11.084;2024-02-16T10:19:57;5.30;;;4.03;;
14686;SDS011;7431;49.440;11.084;2024-02-16T10:22:24;4.82;;;4.15;;
14686;SDS011;7431;49.440;11.084;2024-02-16T10:24:50;5.60;;;3.90;;
14686;SDS011;7431;49.440;11.084;2024-02-16T10:27:17;5.30;;;4.33;;
14686;SDS011;7431;49.440;11.084;2024-02-16T10:29:43;4.37;;;3.77;;
14686;SDS011;7431;49.440;11.084;2024-02-16T10:32:14;4.07;;;3.67;;
14686;SDS011;7431;49.440;11.084;2024-02-16T10:34:40;4.63;;;3.77;;
14686;SDS011;7431;49.440;11.084;2024-02-16T10:37:06;4.67;;;3.73;;
14686;SDS011;7431;49.440;11.084;2024-02-16T10:39:33;4.03;;;3.63;;
14686;SDS011;7431;49.440;11.084;2024-02-16T10:42:04;6.43;;;3.93;;
14686;SDS011;7431;49.440;11.084;2024-02-16T10:47:35;4.43;;;3.70;;
14686;SDS011;7431;49.440;11.084;2024-02-16T10:50:01;4.60;;;3.80;;
14686;SDS011;7431;49.440;11.084;2024-02-16T10:52:29;4.33;;;3.70;;
14686;SDS011;7431;49.440;11.084;2024-02-16T10:54:56;4.60;;;3.60;;
14686;SDS011;7431;49.440;11.084;2024-02-16T10:57:23;6.47;;;3.90;;
14686;SDS011;7431;49.440;11.084;2024-02-16T10:59:52;5.15;;;4.40;;
14686;SDS011;7431;49.440;11.084;2024-02-16T11:02:19;6.83;;;3.80;;
14686;SDS011;7431;49.440;11.084;2024-02-16T11:04:46;4.40;;;4.00;;
14686;SDS011;7431;49.440;11.084;2024-02-16T11:07:15;4.67;;;3.93;;
14686;SDS011;7431;49.440;11.084;2024-02-16T11:09:42;5.73;;;3.70;;
14686;SDS011;7431;49.440;11.084;2024-02-16T11:12:12;6.47;;;4.68;;
14686;SDS011;7431;49.440;11.084;2024-02-16T11:14:46;6.23;;;4.53;;
14686;SDS011;7431;49.440;11.084;2024-02-16T11:17:20;4.93;;;4.45;;
14686;SDS011;7431;49.440;11.084;2024-02-16T11:19:47;6.97;;;3.70;;
14686;SDS011;7431;49.440;11.084;2024-02-16T11:22:16;4.70;;;4.10;;
14686;SDS011;7431;49.440;11.084;2024-02-16T11:24:46;7.47;;;4.70;;
14686;SDS011;7431;49.440;11.084;2024-02-16T11:27:12;6.03;;;4.43;;
14686;SDS011;7431;49.440;11.084;2024-02-16T11:29:40;7.87;;;5.30;;
14686;SDS011;7431;49.440;11.084;2024-02-16T11:32:07;6.25;;;5.22;;
14686;SDS011;7431;49.440;11.084;2024-02-16T11:34:33;6.50;;;4.82;;
14686;SDS011;7431;49.440;11.084;2024-02-16T11:37:01;6.97;;;5.18;;
14686;SDS011;7431;49.440;11.084;2024-02-16T11:39:27;7.03;;;4.47;;
14686;SDS011;7431;49.440;11.084;2024-02-16T11:42:04;6.35;;;5.40;;
14686;SDS011;7431;49.440;11.084;2024-02-16T11:44:31;7.43;;;6.00;;
14686;SDS011;7431;49.440;11.084;2024-02-16T11:46:58;6.70;;;4.60;;
14686;SDS011;7431;49.440;11.084;2024-02-16T11:49:24;6.15;;;5.00;;
14686;SDS011;7431;49.440;11.084;2024-02-16T11:51:50;9.82;;;5.07;;
14686;SDS011;7431;49.440;11.084;2024-02-16T11:54:20;9.20;;;4.87;;
14686;SDS011;7431;49.440;11.084;2024-02-16T11:56:46;4.43;;;3.85;;
14686;SDS011;7431;49.440;11.084;2024-02-16T11:59:15;4.95;;;4.00;;
14686;SDS011;7431;49.440;11.084;2024-02-16T12:01:52;6.10;;;4.30;;
14686;SDS011;7431;49.440;11.084;2024-02-16T12:04:22;8.18;;;4.13;;
14686;SDS011;7431;49.440;11.084;2024-02-16T12:06:59;4.90;;;3.83;;
14686;SDS011;7431;49.440;11.084;2024-02-16T12:09:25;5.72;;;4.07;;
14686;SDS011;7431;49.440;11.084;2024-02-16T12:11:52;6.80;;;3.83;;
14686;SDS011;7431;49.440;11.084;2024-02-16T12:14:18;4.43;;;3.97;;
14686;SDS011;7431;49.440;11.084;2024-02-16T12:16:48;4.20;;;3.53;;
14686;SDS011;7431;49.440;11.084;2024-02-16T12:19:20;4.22;;;3.83;;
14686;SDS011;7431;49.440;11.084;2024-02-16T12:21:54;4.93;;;4.13;;
14686;SDS011;7431;49.440;11.084;2024-02-16T12:24:22;4.05;;;3.63;;
14686;SDS011;7431;49.440;11.084;2024-02-16T12:26:48;4.67;;;3.30;;
14686;SDS011;7431;49.440;11.084;2024-02-16T12:29:14;5.97;;;3.47;;
14686;SDS011;7431;49.440;11.084;2024-02-16T12:31:41;4.32;;;3.72;;
14686;SDS011;7431;49.440;11.084;2024-02-16T12:34:08;5.47;;;4.10;;
14686;SDS011;7431;49.440;11.084;2024-02-16T12:36:34;5.30;;;4.17;;
14686;SDS011;7431;49.440;11.084;2024-02-16T12:39:01;3.67;;;3.37;;
14686;SDS011;7431;49.440;11.084;2024-02-16T12:41:31;3.97;;;3.37;;
14686;SDS011;7431;49.440;11.084;2024-02-16T12:43:57;4.57;;;3.88;;
14686;SDS011;7431;49.440;11.084;2024-02-16T12:46:23;3.85;;;3.40;;
14686;SDS011;7431;49.440;11.084;2024-02-16T12:48:49;3.70;;;3.25;;
14686;SDS011;7431;49.440;11.084;2024-02-16T12:51:15;3.83;;;3.38;;
14686;SDS011;7431;49.440;11.084;2024-02-16T12:53:41;4.38;;;3.38;;
14686;SDS011;7431;49.440;11.084;2024-02-16T12:56:08;5.22;;;3.65;;
14686;SDS011;7431;49.440;11.084;2024-02-16T12:58:35;6.05;;;3.60;;
14686;SDS011;7431;49.440;11.084;2024-02-16T13:01:01;4.97;;;3.58;;
14686;SDS011;7431;49.440;11.084;2024-02-16T13:03:27;4.72;;;3.50;;
14686;SDS011;7431;49.440;11.084;2024-02-16T13:05:53;4.28;;;3.80;;
14686;SDS011;7431;49.440;11.084;2024-02-16T13:08:19;4.18;;;3.67;;
14686;SDS011;7431;49.440;11.084;2024-02-16T13:10:45;8.57;;;4.20;;
14686;SDS011;7431;49.440;11.084;2024-02-16T13:13:11;5.90;;;4.70;;
14686;SDS011;7431;49.440;11.084;2024-02-16T13:15:37;6.22;;;4.10;;
14686;SDS011;7431;49.440;11.084;2024-02-16T13:18:03;4.95;;;4.13;;
14686;SDS011;7431;49.440;11.084;2024-02-16T13:20:29;4.95;;;3.72;;
14686;SDS011;7431;49.440;11.084;2024-02-16T13:22:55;5.43;;;4.03;;
14686;SDS011;7431;49.440;11.084;2024-02-16T13:25:21;4.63;;;3.50;;
14686;SDS011;7431;49.440;11.084;2024-02-16T13:27:47;5.47;;;4.30;;
14686;SDS011;7431;49.440;11.084;2024-02-16T13:30:13;5.38;;;4.25;;
14686;SDS011;7431;49.440;11.084;2024-02-16T13:32:39;6.28;;;3.92;;
14686;SDS011;7431;49.440;11.084;2024-02-16T13:35:06;5.88;;;4.47;;
14686;SDS011;7431;49.440;11.084;2024-02-16T13:37:32;4.82;;;3.83;;
14686;SDS011;7431;49.440;11.084;2024-02-16T13:39:58;4.55;;;3.80;;
14686;SDS011;7431;49.440;11.084;2024-02-16T13:42:24;5.45;;;4.10;;
14686;SDS011;7431;49.440;11.084;2024-02-16T13:44:51;5.15;;;3.78;;
14686;SDS011;7431;49.440;11.084;2024-02-16T13:47:18;5.70;;;3.95;;
14686;SDS011;7431;49.440;11.084;2024-02-16T13:49:44;8.40;;;4.50;;
14686;SDS011;7431;49.440;11.084;2024-02-16T13:52:12;6.53;;;4.30;;
14686;SDS011;7431;49.440;11.084;2024-02-16T13:54:38;5.65;;;4.82;;
14686;SDS011;7431;49.440;11.084;2024-02-16T13:57:04;7.40;;;4.88;;
14686;SDS011;7431;49.440;11.084;2024-02-16T13:59:30;6.35;;;4.85;;
14686;SDS011;7431;49.440;11.084;2024-02-16T14:01:58;5.30;;;4.78;;
14686;SDS011;7431;49.440;11.084;2024-02-16T14:04:24;6.15;;;4.38;;
14686;SDS011;7431;49.440;11.084;2024-02-16T14:06:51;6.30;;;4.32;;
14686;SDS011;7431;49.440;11.084;2024-02-16T14:09:17;4.72;;;4.25;;
14686;SDS011;7431;49.440;11.084;2024-02-16T14:11:46;4.72;;;4.10;;
14686;SDS011;7431;49.440;11.084;2024-02-16T14:14:12;4.43;;;4.00;;
14686;SDS011;7431;49.440;11.084;2024-02-16T14:16:42;8.75;;;4.30;;
14686;SDS011;7431;49.440;11.084;2024-02-16T14:19:09;4.10;;;3.70;;
14686;SDS011;7431;49.440;11.084;2024-02-16T14:21:35;6.55;;;4.32;;
14686;SDS011;7431;49.440;11.084;2024-02-16T14:24:01;5.38;;;4.03;;
14686;SDS011;7431;49.440;11.084;2024-02-16T14:26:26;6.35;;;4.32;;
14686;SDS011;7431;49.440;11.084;2024-02-16T14:28:52;3.90;;;3.53;;
14686;SDS011;7431;49.440;11.084;2024-02-16T14:31:20;6.45;;;4.47;;
14686;SDS011;7431;49.440;11.084;2024-02-16T14:33:47;4.68;;;3.92;;
14686;SDS011;7431;49.440;11.084;2024-02-16T14:36:13;4.85;;;3.88;;
14686;SDS011;7431;49.440;11.084;2024-02-16T14:38:39;5.07;;;3.97;;
14686;SDS011;7431;49.440;11.084;2024-02-16T14:41:05;7.97;;;4.20;;
14686;SDS011;7431;49.440;11.084;2024-02-16T14:43:32;5.15;;;4.00;;
14686;SDS011;7431;49.440;11.084;2024-02-16T14:45:58;5.90;;;4.00;;
14686;SDS011;7431;49.440;11.084;2024-02-16T14:48:24;6.57;;;4.13;;
14686;SDS011;7431;49.440;11.084;2024-02-16T14:50:53;5.35;;;4.20;;